Meteo Giornale » Osservazioni meteo Cile » Puerto Montt

ore: 08:00 - Osservazioni Meteo Puerto Montt
Lat. 41° 25' S Lon. 73° 5' W Alt. 85 metri s.l.m.

molto_nuvoloso America/Santiago

10 °C

Molto Nuvoloso

Temp. 24 Ore

5 °C

21 °C

Nord/Nord-Est

33.3 Km/h

Dew point 8 °C

Umidità 87 %

Visibilità  10 Km

Il sole sorge alle ore 07:33

Il sole tramonta alle ore 19:53

Data e Ora Cielo e Fenomeni T °C DP °C Um. % Pres. hPa Vis. km Vento km/h
Oggi h: 08:00 molto_nuvoloso Molto Nuvoloso 10 8 87 1010 10 N/NE 33.3
Oggi h: 07:01 molto_nuvoloso Molto Nuvoloso 10 9 93 1010 10 N/NE 27.8
Oggi h: 07:00 coperto Coperto 10 9 93 1010 10 N/NE 25.9
Oggi h: 06:00 coperto Coperto 11 8 81 1010 10 N/NE 24
Oggi h: 05:00 coperto Coperto 10 8 87 1010 10 N 22.2
Oggi h: 04:00 molto_nuvoloso Molto Nuvoloso 10 8 87 1010 10 N 16.7
Oggi h: 03:00 coperto Coperto 9 8 93 1010 10 N 11.1
Oggi h: 02:00 molto_nuvoloso Molto Nuvoloso 9 8 93 1010 10 E/NE 11.1
Oggi h: 01:00 coperto Coperto 9 9 100 1010 10 N 5.5
Ieri h: 23:00 molto_nuvoloso Molto Nuvoloso 9 8 93 1010 10 S/SE 7.4
Ieri h: 22:00 poco_nuvoloso Poco Nuvoloso 9 9 100 1010 10 S/SO 7.4
Ieri h: 21:00 molto_nuvoloso Molto Nuvoloso 10 9 93 1010 10 S/SO 11.1
Ieri h: 20:00 poco_nuvoloso Poco Nuvoloso 11 10 93 1010 10 S/SO 13
Ieri h: 19:00 poco_nuvoloso Poco Nuvoloso 13 11 87 1010 10 SO 14.8
Ieri h: 18:00 poco_nuvoloso Poco Nuvoloso 14 10 76 1010 10 SO 22.2
Ieri h: 17:00 poco_nuvoloso Poco Nuvoloso 17 11 67 1010 10 SO 22.2
Ieri h: 16:00 sereno Sereno 21 10 49 1010 10 S 11.1
Ieri h: 15:00 sereno Sereno 21 10 49 1011 10 N 7.4
Ieri h: 14:00 sereno Sereno 20 10 52 1012 10 N 5.5
Ieri h: 13:00 sereno Sereno 18 10 59 1012 10 N 5.5
Ieri h: 12:00 sereno Sereno 16 9 63 1013 10 N 9.3
Ieri h: 11:00 sereno Sereno 14 9 71 1013 10 N/NE 9.3
Ieri h: 09:19 sereno Sereno 8 8 100 1014 10 N 5.5
Ieri h: 09:00 nebbia Nebbia 5 5 100 1014 0.9 N 1.8